createdAt,value
2022-08-20T00:01:02.395Z,18.30
2022-08-20T00:06:06.861Z,17.90
2022-08-20T00:11:11.598Z,17.80
2022-08-20T00:16:15.433Z,18.10
2022-08-20T00:21:19.715Z,18.10
2022-08-20T00:26:23.495Z,18.20
2022-08-20T00:31:25.776Z,18.10
2022-08-20T00:36:32.525Z,18.00
2022-08-20T00:41:34.882Z,18.20
2022-08-20T00:46:37.472Z,17.90
2022-08-20T00:51:47.010Z,17.70
2022-08-20T00:56:54.825Z,17.70
2022-08-20T01:01:57.999Z,17.80
2022-08-20T01:07:00.758Z,17.90
2022-08-20T01:12:03.272Z,17.90
2022-08-20T01:17:08.269Z,17.90
2022-08-20T01:22:32.101Z,17.70
2022-08-20T01:27:35.045Z,17.80
2022-08-20T01:32:44.468Z,17.40
2022-08-20T01:37:46.315Z,17.60
2022-08-20T01:53:33.778Z,17.50
2022-08-20T01:58:39.733Z,17.50
2022-08-20T02:03:44.758Z,17.60
2022-08-20T02:08:46.693Z,17.50
2022-08-20T02:18:58.598Z,17.10
2022-08-20T02:24:01.592Z,17.10
2022-08-20T02:29:08.812Z,17.00
2022-08-20T02:34:14.741Z,17.20
2022-08-20T02:39:26.559Z,17.20
2022-08-20T02:44:57.082Z,17.10
2022-08-20T02:50:50.804Z,16.90
2022-08-20T02:56:33.082Z,17.20
2022-08-20T03:01:55.846Z,17.10
2022-08-20T03:12:05.536Z,17.00
2022-08-20T03:17:07.429Z,16.90
2022-08-20T03:22:09.202Z,16.90
2022-08-20T03:27:12.724Z,16.70
2022-08-20T03:32:14.497Z,16.80
2022-08-20T03:42:18.613Z,16.90
2022-08-20T03:52:22.624Z,16.80
2022-08-20T03:57:24.607Z,16.90
2022-08-20T04:02:27.312Z,16.80
2022-08-20T04:07:29.048Z,16.90
2022-08-20T04:12:30.857Z,16.80
2022-08-20T04:17:33.471Z,16.90
2022-08-20T04:22:35.302Z,16.80
2022-08-20T04:27:38.571Z,16.70
2022-08-20T04:32:41.729Z,16.70
2022-08-20T04:37:46.545Z,16.80
2022-08-20T04:42:48.366Z,16.70
2022-08-20T04:47:55.403Z,16.70
2022-08-20T04:52:59.702Z,16.80
2022-08-20T04:58:11.502Z,16.70
2022-08-20T05:03:13.499Z,16.90
2022-08-20T05:08:20.204Z,16.80
2022-08-20T05:23:37.764Z,17.10
2022-08-20T05:28:47.242Z,17.10
2022-08-20T05:34:09.540Z,17.30
2022-08-20T05:39:13.438Z,17.10
2022-08-20T05:44:15.507Z,17.40
2022-08-20T05:49:20.792Z,17.40
2022-08-20T05:54:23.947Z,17.20
2022-08-20T06:09:36.195Z,17.40
2022-08-20T06:19:46.958Z,17.70
2022-08-20T06:29:51.813Z,17.60
2022-08-20T06:39:56.082Z,17.70
2022-08-20T06:44:59.682Z,17.90
2022-08-20T06:55:04.428Z,18.20
2022-08-20T07:00:09.829Z,18.30
2022-08-20T07:05:12.767Z,18.30
2022-08-20T07:10:15.556Z,18.30
2022-08-20T07:15:19.035Z,18.30
2022-08-20T07:20:21.275Z,18.30
2022-08-20T07:30:57.142Z,17.90
2022-08-20T07:36:02.050Z,18.30
2022-08-20T07:41:13.260Z,18.60
2022-08-20T07:46:17.700Z,18.70
2022-08-20T07:51:22.934Z,18.80
2022-08-20T07:56:24.775Z,18.70
2022-08-20T08:01:30.385Z,19.00
2022-08-20T08:06:32.641Z,19.00
2022-08-20T08:11:38.413Z,19.10
2022-08-20T08:16:40.261Z,19.10
2022-08-20T08:21:42.316Z,19.20
2022-08-20T08:26:44.753Z,19.20
2022-08-20T08:31:46.651Z,19.20
2022-08-20T08:36:48.466Z,19.20
2022-08-20T08:41:51.564Z,19.70
2022-08-20T08:46:58.490Z,19.70
2022-08-20T08:52:08.759Z,20.20
2022-08-20T08:57:11.010Z,20.50
2022-08-20T09:02:20.970Z,20.50
2022-08-20T09:07:26.327Z,20.40
2022-08-20T09:12:28.333Z,20.80
2022-08-20T09:17:30.105Z,21.00
2022-08-20T09:22:33.429Z,20.90
2022-08-20T09:27:35.209Z,21.10
2022-08-20T09:32:38.186Z,21.00
2022-08-20T09:37:40.649Z,21.30
2022-08-20T09:42:42.375Z,21.40
2022-08-20T09:47:57.011Z,21.60
2022-08-20T09:53:01.170Z,21.90
2022-08-20T09:58:07.593Z,21.80
2022-08-20T10:03:09.362Z,22.00
2022-08-20T10:08:12.387Z,22.30
2022-08-20T10:13:15.477Z,22.50
2022-08-20T10:18:18.125Z,22.20
2022-08-20T10:23:20.138Z,21.70
2022-08-20T10:33:24.089Z,21.40
2022-08-20T10:38:25.863Z,21.60
2022-08-20T10:43:28.202Z,21.80
2022-08-20T10:48:30.166Z,22.10
2022-08-20T10:53:32.178Z,21.90
2022-08-20T11:03:41.732Z,21.30
2022-08-20T11:08:43.707Z,21.20
2022-08-20T11:13:45.518Z,21.10
2022-08-20T11:18:47.658Z,21.40
2022-08-20T11:23:49.587Z,21.30
2022-08-20T11:28:51.649Z,21.30
2022-08-20T11:33:53.362Z,21.60
2022-08-20T11:38:55.117Z,21.60
2022-08-20T11:44:19.934Z,21.80
2022-08-20T11:49:18.508Z,22.10
2022-08-20T11:54:20.212Z,22.30
2022-08-20T11:59:22.828Z,22.50
2022-08-20T12:04:25.197Z,22.70
2022-08-20T12:09:28.991Z,22.70
2022-08-20T12:14:30.717Z,22.40
2022-08-20T12:19:32.469Z,22.00
2022-08-20T12:24:34.697Z,21.60
2022-08-20T12:29:37.668Z,21.70
2022-08-20T12:34:41.249Z,21.40
2022-08-20T12:39:46.150Z,21.00
2022-08-20T12:44:48.809Z,20.80
2022-08-20T12:49:56.340Z,20.90
2022-08-20T12:54:58.823Z,20.90
2022-08-20T13:00:05.603Z,20.90
2022-08-20T13:05:12.930Z,20.90
2022-08-20T13:10:19.428Z,20.90
2022-08-20T13:15:22.002Z,21.00
2022-08-20T13:20:27.043Z,21.00
2022-08-20T13:25:36.032Z,20.90
2022-08-20T13:30:39.128Z,21.10
2022-08-20T13:35:41.107Z,20.90
2022-08-20T13:40:43.266Z,20.80
2022-08-20T13:45:49.253Z,21.10
2022-08-20T13:50:51.178Z,22.10
2022-08-20T13:55:53.006Z,21.10
2022-08-20T14:00:54.836Z,21.20
2022-08-20T14:05:56.932Z,21.10
2022-08-20T14:10:59.604Z,20.90
2022-08-20T14:16:01.442Z,20.80
2022-08-20T14:21:03.425Z,20.70
2022-08-20T14:26:05.519Z,20.70
2022-08-20T14:31:07.313Z,20.70
2022-08-20T14:36:09.470Z,20.90
2022-08-20T14:41:11.855Z,20.90
2022-08-20T14:46:13.724Z,21.10
2022-08-20T14:51:15.672Z,21.30
2022-08-20T14:56:18.057Z,21.60
2022-08-20T15:01:19.842Z,22.10
2022-08-20T15:06:21.940Z,22.10
2022-08-20T15:11:23.951Z,22.00
2022-08-20T15:16:25.705Z,22.10
2022-08-20T15:21:30.457Z,22.00
2022-08-20T15:26:47.603Z,21.80
2022-08-20T15:31:49.324Z,21.90
2022-08-20T15:36:51.021Z,21.90
2022-08-20T15:41:52.731Z,22.00
2022-08-20T15:46:54.440Z,22.00
2022-08-20T15:51:56.210Z,22.00
2022-08-20T15:57:25.016Z,22.20
2022-08-20T16:02:58.682Z,21.90
2022-08-20T16:08:21.874Z,21.80
2022-08-20T16:13:40.343Z,22.00
2022-08-20T16:18:43.798Z,22.30
2022-08-20T16:23:45.692Z,22.50
2022-08-20T16:29:05.951Z,22.10
2022-08-20T16:34:33.798Z,22.10
2022-08-20T16:39:50.668Z,21.90
2022-08-20T16:44:56.109Z,22.60
2022-08-20T16:50:02.678Z,22.60
2022-08-20T16:55:04.673Z,22.50
2022-08-20T17:00:35.680Z,22.60
2022-08-20T17:05:54.301Z,22.60
2022-08-20T17:11:22.844Z,22.60
2022-08-20T17:16:24.531Z,22.50
2022-08-20T17:21:31.927Z,22.50
2022-08-20T17:26:37.051Z,22.40
2022-08-20T17:31:44.513Z,22.20
2022-08-20T17:37:19.732Z,22.10
2022-08-20T17:42:25.622Z,22.00
2022-08-20T17:47:34.394Z,21.90
2022-08-20T17:52:49.688Z,21.80
2022-08-20T17:57:56.821Z,21.60
2022-08-20T18:03:06.221Z,21.50
2022-08-20T18:08:30.945Z,21.40
2022-08-20T18:13:44.982Z,21.40
2022-08-20T18:19:12.100Z,21.20
2022-08-20T18:24:23.602Z,21.00
2022-08-20T18:29:33.150Z,21.00
2022-08-20T18:34:39.410Z,20.80
2022-08-20T18:39:47.079Z,20.70
2022-08-20T18:44:51.599Z,20.60
2022-08-20T18:50:16.101Z,20.40
2022-08-20T18:55:32.296Z,20.20
2022-08-20T19:00:44.572Z,20.10
2022-08-20T19:05:46.204Z,20.00
2022-08-20T19:11:24.955Z,19.70
2022-08-20T19:16:46.289Z,19.50
2022-08-20T19:21:48.713Z,19.50
2022-08-20T19:26:56.486Z,19.40
2022-08-20T19:32:04.874Z,19.00
2022-08-20T19:37:34.932Z,19.00
2022-08-20T19:42:42.863Z,18.80
2022-08-20T19:48:16.931Z,18.80
2022-08-20T19:53:34.776Z,18.70
2022-08-20T19:58:36.576Z,18.80
2022-08-20T20:03:38.980Z,18.70
2022-08-20T20:08:59.913Z,18.60
2022-08-20T20:14:10.678Z,18.40
2022-08-20T20:19:26.274Z,18.30
2022-08-20T20:24:39.330Z,18.60
2022-08-20T20:29:41.650Z,18.00
2022-08-20T20:34:55.339Z,18.00
2022-08-20T20:40:07.538Z,18.10
2022-08-20T20:45:20.939Z,18.10
2022-08-20T20:50:34.428Z,18.00
2022-08-20T20:55:38.375Z,17.90
2022-08-20T21:00:40.169Z,17.70
2022-08-20T21:05:41.913Z,17.80
2022-08-20T21:10:43.966Z,17.90
2022-08-20T21:15:45.692Z,17.90
2022-08-20T21:20:49.027Z,17.50
2022-08-20T21:25:50.782Z,17.50
2022-08-20T21:36:00.370Z,17.30
2022-08-20T21:46:04.727Z,17.20
2022-08-20T21:51:07.286Z,17.00
2022-08-20T21:56:10.098Z,16.90
2022-08-20T22:01:14.390Z,16.80
2022-08-20T22:06:16.175Z,16.90
2022-08-20T22:11:18.097Z,16.90
2022-08-20T22:16:21.626Z,16.60
2022-08-20T22:21:27.129Z,16.60
2022-08-20T22:26:29.479Z,16.80
2022-08-20T22:31:35.115Z,16.80
2022-08-20T22:36:37.290Z,16.70
2022-08-20T22:41:40.114Z,16.80
2022-08-20T22:46:47.062Z,16.70
2022-08-20T22:51:50.985Z,16.50
2022-08-20T22:56:55.465Z,16.50
2022-08-20T23:01:57.313Z,16.90
2022-08-20T23:07:01.025Z,17.30
2022-08-20T23:12:02.938Z,16.70
2022-08-20T23:17:13.227Z,16.50
2022-08-20T23:22:16.045Z,16.50
2022-08-20T23:27:20.174Z,16.90
2022-08-20T23:32:22.070Z,16.70
2022-08-20T23:37:24.393Z,16.40
2022-08-20T23:52:31.012Z,15.70
